Time;durP1;ratioP1;P1;durP2;ratioP2;P2;SDS_P1;SDS_P2;PMS_P1;PMS_P2;Temp;Humidity;BMP_temperature;BMP_pressure;BME280_temperature;BME280_humidity;BME280_pressure;Samples;Min_cycle;Max_cycle;Signal;HPM_P1;HPM_P2
2024/03/25 00:01:45;;;;;;;17.80;12.60;;;;;;;8.21;61.42;99372.33;105569;1256;61995;-57
2024/03/25 00:04:13;;;;;;;9.80;4.00;;;;;;;8.20;61.47;99366.45;105601;1254;61173;-58
2024/03/25 00:06:40;;;;;;;11.10;4.40;;;;;;;8.22;61.52;99361.74;105566;1251;65751;-59
2024/03/25 00:09:13;;;;;;;12.00;6.00;;;;;;;8.22;61.53;99364.84;105364;1258;61601;-59
2024/03/25 00:11:41;;;;;;;15.10;11.10;;;;;;;8.18;61.59;99364.32;105676;1257;62756;-59
2024/03/25 00:14:09;;;;;;;11.00;4.60;;;;;;;8.14;61.77;99363.78;105802;1254;61314;-58
2024/03/25 00:16:37;;;;;;;11.60;5.20;;;;;;;8.11;61.81;99363.02;105959;1257;61243;-56
2024/03/25 00:19:04;;;;;;;12.60;5.50;;;;;;;8.06;61.85;99359.74;105232;1254;65687;-57
2024/03/25 00:21:32;;;;;;;7.30;4.00;;;;;;;7.99;61.76;99359.14;105473;1254;61356;-57
2024/03/25 00:24:00;;;;;;;13.90;10.60;;;;;;;7.88;61.86;99358.83;106103;1255;62539;-58
2024/03/25 00:26:28;;;;;;;9.80;3.90;;;;;;;7.81;62.13;99361.91;106188;1256;61288;-57
2024/03/25 00:28:55;;;;;;;8.80;2.50;;;;;;;7.78;62.10;99359.88;105329;1257;61486;-62
2024/03/25 00:31:23;;;;;;;13.90;9.50;;;;;;;7.78;62.17;99359.30;105376;1254;65659;-56
2024/03/25 00:33:50;;;;;;;11.10;3.70;;;;;;;7.84;62.22;99356.09;105417;1257;61780;-56
2024/03/25 00:36:18;;;;;;;10.10;5.10;;;;;;;7.88;62.20;99351.67;105452;1258;63651;-57
2024/03/25 00:38:45;;;;;;;11.20;4.90;;;;;;;7.88;62.05;99348.00;105473;1254;61377;-57
2024/03/25 00:41:13;;;;;;;13.70;9.80;;;;;;;7.90;62.44;99346.80;105649;1251;61292;-56
2024/03/25 00:43:40;;;;;;;10.00;3.90;;;;;;;7.94;62.46;99349.45;105394;1257;66169;-58
2024/03/25 00:46:08;;;;;;;9.00;4.10;;;;;;;7.93;62.32;99348.41;105385;1256;61501;-56
2024/03/25 00:48:37;;;;;;;9.20;4.90;;;;;;;7.91;62.24;99347.58;105595;1257;63942;-56
2024/03/25 00:51:05;;;;;;;10.90;6.10;;;;;;;7.90;62.30;99356.41;105749;1253;61247;-57
2024/03/25 00:53:32;;;;;;;11.50;5.10;;;;;;;7.88;62.32;99359.91;105345;1257;61208;-57
2024/03/25 00:55:59;;;;;;;16.80;11.20;;;;;;;7.85;62.17;99367.02;105443;1251;65705;-56
2024/03/25 00:58:27;;;;;;;10.90;5.20;;;;;;;7.80;62.11;99369.17;105434;1257;61217;-56
2024/03/25 01:00:55;;;;;;;12.90;5.00;;;;;;;7.78;61.89;99365.61;105395;1254;63823;-56
2024/03/25 01:03:23;;;;;;;9.10;4.00;;;;;;;7.78;61.88;99357.42;106219;1256;61330;-59
2024/03/25 01:05:50;;;;;;;10.80;5.60;;;;;;;7.78;61.80;99343.61;106940;1254;60024;-56
2024/03/25 01:08:19;;;;;;;12.10;5.10;;;;;;;7.83;62.04;99334.17;105294;1258;65717;-56
2024/03/25 01:10:47;;;;;;;15.80;10.50;;;;;;;7.90;62.07;99329.19;105601;1251;61488;-56
2024/03/25 01:13:14;;;;;;;10.60;3.80;;;;;;;7.96;62.14;99326.75;105371;1257;62792;-57
2024/03/25 01:15:42;;;;;;;14.00;5.70;;;;;;;7.97;62.05;99329.93;105369;1254;61490;-58
2024/03/25 01:18:09;;;;;;;8.50;4.40;;;;;;;7.95;61.75;99336.79;105571;1257;61156;-56
2024/03/25 01:20:37;;;;;;;9.80;5.60;;;;;;;7.88;61.66;99337.52;105771;1255;64481;-56
2024/03/25 01:23:04;;;;;;;13.80;10.40;;;;;;;7.83;61.79;99330.48;105879;1257;61442;-57
2024/03/25 01:25:32;;;;;;;10.70;4.10;;;;;;;7.82;61.86;99330.41;105363;1256;63679;-56
2024/03/25 01:27:59;;;;;;;9.80;5.10;;;;;;;7.78;61.69;99326.16;105503;1253;61343;-56
2024/03/25 01:30:28;;;;;;;10.90;5.60;;;;;;;7.70;61.67;99327.05;105968;1257;61327;-57
2024/03/25 01:32:56;;;;;;;15.60;7.20;;;;;;;7.66;61.63;99327.71;106076;1251;66179;-56
2024/03/25 01:35:23;;;;;;;15.00;11.30;;;;;;;7.60;61.66;99323.80;105436;1251;61438;-57
2024/03/25 01:37:51;;;;;;;10.20;4.60;;;;;;;7.55;61.87;99320.46;106081;1254;63812;-58
2024/03/25 01:40:18;;;;;;;9.50;3.60;;;;;;;7.57;61.86;99321.80;105441;1258;61243;-56
2024/03/25 01:42:59;;;;;;;7.90;3.60;;;;;;;7.63;61.81;99321.50;105350;1251;61327;-57
2024/03/25 01:45:29;;;;;;;11.80;4.70;;;;;;;7.74;61.69;99322.69;106725;1251;66717;-57
2024/03/25 01:47:57;;;;;;;9.30;4.20;;;;;;;7.80;61.71;99318.69;106057;1251;61638;-57
2024/03/25 01:50:25;;;;;;;15.10;11.10;;;;;;;7.85;61.80;99318.58;105913;1253;62534;-57
2024/03/25 01:52:53;;;;;;;9.30;4.60;;;;;;;7.93;61.78;99319.66;105116;1255;61355;-57
2024/03/25 01:55:21;;;;;;;11.40;5.30;;;;;;;7.99;61.67;99322.81;105250;1260;61234;-57
2024/03/25 01:57:49;;;;;;;12.60;5.60;;;;;;;8.00;61.51;99323.58;109186;1251;72894;-58
2024/03/25 02:00:17;;;;;;;13.30;6.20;;;;;;;7.99;61.28;99323.89;107126;1254;60189;-57
2024/03/25 02:02:48;;;;;;;11.20;6.40;;;;;;;7.94;61.33;99323.05;105391;1253;63686;-57
2024/03/25 02:05:17;;;;;;;20.70;14.80;;;;;;;7.89;61.33;99323.50;105315;1257;61212;-57
2024/03/25 02:07:44;;;;;;;12.30;5.80;;;;;;;7.83;61.27;99323.64;105447;1251;61375;-58
2024/03/25 02:10:14;;;;;;;14.80;6.50;;;;;;;7.77;61.29;99326.45;105413;1257;65723;-58
2024/03/25 02:12:44;;;;;;;12.60;5.40;;;;;;;7.73;61.52;99337.63;105530;1252;62062;-58
2024/03/25 02:15:12;;;;;;;16.30;7.30;;;;;;;7.69;61.69;99340.05;105592;1257;63724;-58
2024/03/25 02:17:40;;;;;;;21.80;12.80;;;;;;;7.65;61.75;99342.29;105673;1251;62223;-57
2024/03/25 02:20:08;;;;;;;13.70;5.50;;;;;;;7.62;61.84;99344.59;105316;1257;61173;-57
2024/03/25 02:22:38;;;;;;;11.30;4.60;;;;;;;7.66;61.66;99342.40;105347;1251;64521;-57
2024/03/25 02:25:08;;;;;;;9.80;5.10;;;;;;;7.72;61.63;99338.89;106484;1251;61310;-56
2024/03/25 02:27:39;;;;;;;12.80;5.40;;;;;;;7.78;61.69;99327.17;105680;1256;62515;-56
2024/03/25 02:30:08;;;;;;;18.20;12.20;;;;;;;7.86;61.76;99319.08;105457;1256;61251;-56
2024/03/25 02:32:35;;;;;;;11.30;5.00;;;;;;;7.91;61.66;99326.14;106651;1251;61284;-56
2024/03/25 02:35:05;;;;;;;13.50;7.10;;;;;;;7.94;61.72;99328.81;105666;1251;65882;-57
2024/03/25 02:37:32;;;;;;;12.60;6.40;;;;;;;7.96;61.78;99323.27;105993;1251;61502;-57
2024/03/25 02:40:01;;;;;;;11.50;5.10;;;;;;;7.98;61.72;99322.55;106227;1251;62569;-57
2024/03/25 02:42:28;;;;;;;12.60;5.40;;;;;;;7.94;61.38;99330.36;105394;1251;61328;-56
2024/03/25 02:44:56;;;;;;;12.40;6.00;;;;;;;7.83;61.17;99333.76;105975;1257;61266;-56
2024/03/25 02:47:23;;;;;;;11.00;5.90;;;;;;;7.70;61.16;99345.70;105256;1254;66784;-59
2024/03/25 02:49:51;;;;;;;12.50;6.20;;;;;;;7.58;61.19;99347.61;105358;1259;61244;-59
2024/03/25 02:52:19;;;;;;;12.20;6.70;;;;;;;7.47;61.38;99346.77;105248;1253;62916;-59
2024/03/25 02:54:46;;;;;;;12.00;5.90;;;;;;;7.39;61.61;99350.73;105471;1253;61282;-58
2024/03/25 02:57:14;;;;;;;11.00;4.90;;;;;;;7.34;61.79;99360.57;105504;1251;61306;-57
2024/03/25 02:59:42;;;;;;;11.00;4.50;;;;;;;7.31;61.91;99363.14;105538;1257;66174;-59
2024/03/25 03:02:09;;;;;;;15.50;11.30;;;;;;;7.32;61.94;99370.30;105436;1251;61514;-57
2024/03/25 03:04:36;;;;;;;11.90;3.50;;;;;;;7.37;61.83;99369.73;105369;1257;62434;-55
2024/03/25 03:07:04;;;;;;;8.20;3.70;;;;;;;7.43;61.75;99374.98;105618;1255;286950;-58
2024/03/25 03:11:34;;;;;;;11.60;4.80;;;;;;;7.17;62.77;99383.21;102365;1294;600596;-58
2024/03/25 03:14:02;;;;;;;10.30;5.60;;;;;;;7.44;61.91;99390.45;104868;1270;59670;-56
2024/03/25 03:16:30;;;;;;;9.70;5.50;;;;;;;7.47;61.73;99398.81;105087;1264;59686;-56
2024/03/25 03:18:57;;;;;;;16.40;12.20;;;;;;;7.42;61.71;99409.27;104612;1266;62871;-58
2024/03/25 03:21:25;;;;;;;9.70;4.50;;;;;;;7.37;61.77;99418.10;105034;1266;61390;-58
2024/03/25 03:23:52;;;;;;;11.70;5.00;;;;;;;7.35;61.97;99421.06;104394;1266;63696;-57
2024/03/25 03:26:20;;;;;;;11.20;5.70;;;;;;;7.33;62.04;99422.80;104339;1264;442290;-58
2024/03/25 03:28:47;;;;;;;11.10;5.30;;;;;;;7.29;61.98;99415.41;104761;1259;59266;-58
2024/03/25 03:31:15;;;;;;;11.50;4.60;;;;;;;7.26;62.04;99410.06;104809;1267;64056;-57
2024/03/25 03:33:42;;;;;;;11.90;5.20;;;;;;;7.24;62.24;99398.83;104908;1260;60112;-57
2024/03/25 03:36:10;;;;;;;13.30;5.10;;;;;;;7.25;62.30;99383.64;104948;1261;64043;-57
2024/03/25 03:38:37;;;;;;;13.00;7.60;;;;;;;7.24;62.27;99376.21;105258;1257;60549;-56
2024/03/25 03:41:06;;;;;;;11.90;5.90;;;;;;;7.21;62.20;99374.67;105387;1256;60585;-57
2024/03/25 03:43:34;;;;;;;10.20;4.10;;;;;;;7.23;62.19;99376.95;105372;1252;63655;-57
2024/03/25 03:46:02;;;;;;;8.10;3.90;;;;;;;7.30;62.13;99375.58;105301;1251;61297;-57
2024/03/25 03:48:30;;;;;;;11.00;5.10;;;;;;;7.37;62.09;99379.48;107629;1254;62431;-57
2024/03/25 03:50:57;;;;;;;8.10;3.40;;;;;;;7.46;62.13;99385.58;105954;1253;60523;-56
2024/03/25 03:53:25;;;;;;;10.30;4.80;;;;;;;7.54;61.90;99392.25;105543;1257;60369;-59
2024/03/25 03:55:56;;;;;;;15.70;10.90;;;;;;;7.60;61.85;99396.41;106047;1251;64923;-56
2024/03/25 03:58:24;;;;;;;11.30;5.30;;;;;;;7.65;61.85;99393.11;106066;1251;61583;-56
2024/03/25 04:00:52;;;;;;;10.50;4.60;;;;;;;7.68;61.85;99386.03;106171;1251;63416;-56
2024/03/25 04:03:20;;;;;;;12.70;6.70;;;;;;;7.73;61.79;99388.59;105415;1251;60593;-56
2024/03/25 04:05:47;;;;;;;11.50;6.10;;;;;;;7.75;61.65;99390.31;105441;1254;61523;-52
2024/03/25 04:08:15;;;;;;;16.30;12.60;;;;;;;7.73;61.42;99387.36;105568;1251;63597;-56
2024/03/25 04:10:43;;;;;;;12.70;5.70;;;;;;;7.69;61.21;99384.04;105393;1251;61508;-56
2024/03/25 04:13:11;;;;;;;10.50;5.70;;;;;;;7.67;61.16;99383.02;105856;1253;63764;-56
2024/03/25 04:15:39;;;;;;;9.60;4.70;;;;;;;7.68;61.06;99384.09;105737;1253;60822;-56
2024/03/25 04:18:07;;;;;;;13.10;5.80;;;;;;;7.71;61.20;99379.67;105399;1257;60559;-54
2024/03/25 04:20:41;;;;;;;17.60;7.80;;;;;;;7.72;61.22;99376.80;105454;1257;65749;-57
2024/03/25 04:23:09;;;;;;;8.80;4.60;;;;;;;7.73;61.31;99373.23;105800;1251;61392;-59
2024/03/25 04:25:39;;;;;;;11.40;5.00;;;;;;;7.71;61.34;99378.80;105724;1252;63685;-59
2024/03/25 04:28:07;;;;;;;12.10;6.90;;;;;;;7.67;61.41;99379.69;105301;1251;60540;-57
2024/03/25 04:30:34;;;;;;;16.40;6.60;;;;;;;7.63;61.45;99377.02;105354;1256;60501;-57
2024/03/25 04:33:02;;;;;;;16.80;12.90;;;;;;;7.60;61.54;99380.77;105043;1257;69029;-57
2024/03/25 04:35:30;;;;;;;9.50;5.10;;;;;;;7.55;61.56;99373.30;105983;1256;62017;-58
2024/03/25 04:37:57;;;;;;;12.10;4.60;;;;;;;7.57;61.47;99370.90;104969;1257;63996;-57
2024/03/25 04:40:26;;;;;;;10.40;4.00;;;;;;;7.62;61.60;99373.41;105371;1253;60459;-59
2024/03/25 04:42:54;;;;;;;10.00;4.10;;;;;;;7.67;61.39;99373.70;105301;1256;60683;-58
2024/03/25 04:45:21;;;;;;;9.90;5.20;;;;;;;7.73;61.61;99376.16;105542;1256;65640;-59
2024/03/25 04:47:49;;;;;;;13.00;6.20;;;;;;;7.81;61.69;99378.46;105419;1251;61469;-58
2024/03/25 04:50:16;;;;;;;16.10;11.50;;;;;;;7.86;61.80;99373.36;105579;1251;63690;-59
2024/03/25 04:52:44;;;;;;;9.50;5.20;;;;;;;7.90;61.91;99363.79;105276;1256;60549;-58
2024/03/25 04:55:11;;;;;;;13.50;5.50;;;;;;;7.92;61.87;99356.11;105575;1256;60532;-63
2024/03/25 04:57:38;;;;;;;12.40;6.30;;;;;;;7.92;62.02;99358.86;105071;1257;67215;-66
2024/03/25 05:00:07;;;;;;;18.50;13.40;;;;;;;7.92;62.05;99361.48;105214;1251;61791;-59
2024/03/25 05:02:36;;;;;;;9.90;5.20;;;;;;;7.93;61.90;99355.83;105876;1256;62529;-65
2024/03/25 05:05:04;;;;;;;9.20;3.70;;;;;;;7.94;61.57;99349.22;105434;1257;60562;-71
2024/03/25 05:07:32;;;;;;;7.90;3.20;;;;;;;7.97;61.37;99348.51;107424;1254;60542;-63
2024/03/25 05:09:59;;;;;;;10.30;4.00;;;;;;;8.01;61.48;99343.96;105994;1251;73823;-64
2024/03/25 05:12:30;;;;;;;9.40;4.60;;;;;;;8.07;61.42;99341.88;105798;1257;61438;-61
2024/03/25 05:14:57;;;;;;;12.50;9.20;;;;;;;8.09;61.35;99343.79;105116;1254;64028;-67
2024/03/25 05:17:25;;;;;;;10.80;4.00;;;;;;;8.11;61.21;99345.70;105960;1254;60548;-66
2024/03/25 05:19:53;;;;;;;9.20;4.30;;;;;;;8.09;61.08;99341.70;105266;1257;60985;-66
2024/03/25 05:22:20;;;;;;;9.20;3.80;;;;;;;8.02;60.97;99347.89;105316;1251;63668;-66
2024/03/25 05:24:50;;;;;;;7.70;2.90;;;;;;;7.91;60.83;99350.55;105339;1251;61408;-65
2024/03/25 05:27:25;;;;;;;8.00;3.90;;;;;;;7.80;61.01;99350.80;106584;1254;63920;-66
2024/03/25 05:29:56;;;;;;;13.10;7.70;;;;;;;7.72;61.17;99349.36;105387;1257;61632;-64
2024/03/25 05:32:24;;;;;;;6.50;2.50;;;;;;;7.71;61.30;99349.48;105130;1251;60453;-66
2024/03/25 05:34:52;;;;;;;8.40;3.60;;;;;;;7.73;61.26;99354.49;105314;1257;64961;-66
2024/03/25 05:37:20;;;;;;;9.40;2.90;;;;;;;7.76;61.35;99357.59;105358;1254;71418;-66
2024/03/25 05:39:48;;;;;;;7.90;3.60;;;;;;;7.78;61.55;99362.81;105077;1254;74967;-64
2024/03/25 05:42:15;;;;;;;9.70;4.40;;;;;;;7.79;61.58;99363.95;105239;1256;60635;-61
2024/03/25 05:44:46;;;;;;;9.10;3.30;;;;;;;7.80;61.64;99359.84;105219;1250;60433;-66
2024/03/25 05:47:17;;;;;;;7.00;3.60;;;;;;;7.81;61.51;99353.52;106287;1254;63645;-56
2024/03/25 05:49:46;;;;;;;11.70;7.00;;;;;;;7.82;61.56;99346.73;105463;1257;61677;-64
2024/03/25 05:52:14;;;;;;;9.50;3.20;;;;;;;7.89;61.45;99343.77;105173;1253;62471;-64
2024/03/25 05:54:41;;;;;;;8.00;2.90;;;;;;;7.94;61.22;99347.13;106958;1253;60529;-66
2024/03/25 05:57:09;;;;;;;8.20;2.70;;;;;;;7.95;61.30;99354.41;105097;1256;60310;-67
2024/03/25 05:59:38;;;;;;;8.50;2.60;;;;;;;7.95;61.29;99362.46;104856;1257;64920;-64
2024/03/25 06:02:05;;;;;;;12.20;3.50;;;;;;;7.94;61.29;99368.83;109244;1251;61403;-67
2024/03/25 06:04:33;;;;;;;10.80;5.40;;;;;;;7.89;61.26;99368.00;109292;1251;64199;-65
2024/03/25 06:07:00;;;;;;;9.60;5.50;;;;;;;7.83;61.15;99368.15;106028;1251;60498;-65
2024/03/25 06:09:28;;;;;;;5.90;2.70;;;;;;;7.82;61.30;99369.62;105242;1253;59571;-64
2024/03/25 06:11:57;;;;;;;7.60;3.20;;;;;;;7.91;61.22;99368.36;106899;1254;64164;-61
2024/03/25 06:14:24;;;;;;;5.30;1.70;;;;;;;8.03;61.15;99361.27;105183;1254;60452;-56
2024/03/25 06:16:52;;;;;;;4.20;1.80;;;;;;;8.15;60.79;99358.48;105536;1251;63881;-56
2024/03/25 06:19:19;;;;;;;9.40;5.20;;;;;;;8.22;60.33;99357.85;105466;1254;60536;-57
2024/03/25 06:21:47;;;;;;;5.80;2.30;;;;;;;8.25;60.22;99358.98;105451;1257;60436;-58
2024/03/25 06:24:14;;;;;;;5.70;2.20;;;;;;;8.28;60.10;99361.31;105201;1251;63671;-58
2024/03/25 06:26:42;;;;;;;6.90;2.70;;;;;;;8.29;59.73;99363.56;105306;1257;60459;-58
2024/03/25 06:29:09;;;;;;;7.30;2.80;;;;;;;8.25;59.62;99369.98;105185;1254;73310;-58
2024/03/25 06:34:23;;;;;;;6.00;2.00;;;;;;;8.28;59.59;99383.25;105178;1252;62262;-56
2024/03/25 06:36:51;;;;;;;5.00;1.40;;;;;;;8.35;59.60;99383.64;107126;1254;66295;-59
2024/03/25 06:39:18;;;;;;;5.50;2.30;;;;;;;8.44;59.36;99383.27;105303;1254;63793;-59
2024/03/25 06:41:46;;;;;;;7.60;4.30;;;;;;;8.50;59.33;99386.04;105895;1257;63726;-63
2024/03/25 06:44:13;;;;;;;6.40;2.20;;;;;;;8.57;59.19;99391.20;105561;1253;60319;-61
2024/03/25 06:46:41;;;;;;;5.30;1.80;;;;;;;8.61;59.07;99396.13;105750;1251;60635;-62
2024/03/25 06:49:09;;;;;;;6.70;2.00;;;;;;;8.63;58.54;99398.89;105646;1256;66935;-67
2024/03/25 06:51:36;;;;;;;7.50;3.60;;;;;;;8.61;58.06;99402.38;106238;1251;61786;-67
2024/03/25 06:54:03;;;;;;;3.80;1.20;;;;;;;8.59;57.74;99402.61;106450;1257;70473;-64
2024/03/25 06:56:31;;;;;;;8.30;2.10;;;;;;;8.58;57.53;99400.08;106390;1254;60373;-66
2024/03/25 06:58:58;;;;;;;2.90;1.20;;;;;;;8.58;57.34;99398.27;106339;1251;60555;-64
2024/03/25 07:01:26;;;;;;;4.60;1.80;;;;;;;8.64;57.06;99398.83;106161;1251;65609;-68
2024/03/25 07:03:54;;;;;;;6.90;3.20;;;;;;;8.71;56.86;99398.71;105965;1254;60489;-63
2024/03/25 07:06:21;;;;;;;4.00;1.50;;;;;;;8.78;56.81;99396.55;105421;1251;64940;-58
2024/03/25 07:08:49;;;;;;;6.60;3.20;;;;;;;8.84;56.96;99400.04;105264;1256;60530;-59
2024/03/25 07:11:17;;;;;;;8.30;2.20;;;;;;;8.93;57.01;99402.90;105349;1256;60353;-58
2024/03/25 07:13:45;;;;;;;8.20;4.00;;;;;;;9.02;56.64;99401.77;106261;1251;63631;-57
2024/03/25 07:16:12;;;;;;;5.40;1.70;;;;;;;9.07;56.39;99398.54;105337;1251;60468;-56
2024/03/25 07:18:40;;;;;;;6.80;3.50;;;;;;;9.06;55.72;99399.80;105376;1256;62479;-68
2024/03/25 07:21:07;;;;;;;5.40;1.90;;;;;;;9.00;55.41;99401.11;106288;1256;61234;-60
2024/03/25 07:23:34;;;;;;;3.80;1.10;;;;;;;8.94;55.65;99408.64;105633;1251;61335;-61
2024/03/25 07:26:03;;;;;;;4.20;1.40;;;;;;;8.91;55.83;99410.44;105944;1251;67334;-61
2024/03/25 07:28:30;;;;;;;5.10;1.20;;;;;;;8.95;55.81;99410.58;105917;1256;61893;-62
2024/03/25 07:30:59;;;;;;;8.00;3.10;;;;;;;9.06;55.65;99412.13;105633;1255;62885;-62
2024/03/25 07:33:26;;;;;;;4.90;1.50;;;;;;;9.20;55.54;99411.39;105862;1254;61268;-61
2024/03/25 07:35:54;;;;;;;8.20;3.60;;;;;;;9.30;55.31;99412.20;105507;1251;61359;-61
2024/03/25 07:38:22;;;;;;;3.80;1.00;;;;;;;9.40;55.15;99417.41;105474;1251;76906;-58
2024/03/25 07:40:52;;;;;;;6.50;3.20;;;;;;;9.49;54.80;99422.02;105421;1251;61641;-59
2024/03/25 07:43:20;;;;;;;4.50;1.10;;;;;;;9.57;54.75;99424.64;105611;1254;74901;-59
2024/03/25 07:45:47;;;;;;;8.00;3.30;;;;;;;9.65;54.44;99428.51;109256;1251;59280;-57
2024/03/25 07:48:15;;;;;;;4.60;1.30;;;;;;;9.66;53.96;99418.91;109334;1251;59099;-58
2024/03/25 07:50:42;;;;;;;3.80;1.10;;;;;;;9.62;53.54;99417.73;109341;1251;66509;-58
2024/03/25 07:53:10;;;;;;;5.90;2.90;;;;;;;9.59;53.54;99418.04;109320;1251;71352;-58
2024/03/25 07:55:37;;;;;;;6.30;2.00;;;;;;;9.59;53.70;99423.92;109377;1251;73230;-58
2024/03/25 07:58:05;;;;;;;8.00;3.30;;;;;;;9.61;53.59;99425.20;109323;1253;59169;-58
2024/03/25 08:00:34;;;;;;;4.90;2.10;;;;;;;9.60;53.39;99423.16;106575;1251;61431;-57
2024/03/25 08:03:02;;;;;;;5.50;2.90;;;;;;;9.59;53.45;99422.73;106734;1257;76874;-58
2024/03/25 08:05:30;;;;;;;9.10;2.60;;;;;;;9.62;53.59;99422.48;106766;1254;64140;-58
2024/03/25 08:07:57;;;;;;;6.40;2.60;;;;;;;9.70;53.34;99426.98;106102;1251;66121;-59
2024/03/25 08:10:25;;;;;;;4.10;1.10;;;;;;;9.78;53.27;99431.67;105277;1254;61871;-59
2024/03/25 08:12:53;;;;;;;7.30;3.00;;;;;;;9.83;53.18;99430.67;107168;1257;61151;-58
2024/03/25 08:15:20;;;;;;;4.60;1.20;;;;;;;9.89;53.17;99432.80;105153;1257;68098;-60
2024/03/25 08:17:48;;;;;;;6.70;2.40;;;;;;;9.95;53.08;99434.84;109369;1251;63762;-60
2024/03/25 08:20:15;;;;;;;4.80;1.30;;;;;;;10.03;53.00;99436.20;109318;1251;66381;-60
2024/03/25 08:22:43;;;;;;;7.00;3.20;;;;;;;10.10;52.65;99435.89;108035;1251;61471;-56
2024/03/25 08:25:12;;;;;;;5.20;1.20;;;;;;;10.13;52.34;99439.36;109324;1251;59200;-58
2024/03/25 08:27:39;;;;;;;5.90;2.60;;;;;;;10.13;52.43;99432.85;109377;1251;64676;-58
2024/03/25 08:30:07;;;;;;;8.20;1.70;;;;;;;10.17;52.41;99430.13;107284;1257;62370;-57
2024/03/25 08:32:35;;;;;;;7.30;2.90;;;;;;;10.24;52.26;99421.08;105754;1253;64115;-55
2024/03/25 08:35:03;;;;;;;7.40;3.20;;;;;;;10.29;51.98;99416.77;105401;1254;61403;-56
2024/03/25 08:37:30;;;;;;;4.50;1.30;;;;;;;10.32;51.42;99415.85;106042;1251;61397;-58
2024/03/25 08:39:58;;;;;;;6.60;2.70;;;;;;;10.31;51.61;99420.16;105749;1251;65155;-56
2024/03/25 08:42:26;;;;;;;5.00;1.20;;;;;;;10.32;51.49;99418.34;105392;1257;61903;-56
2024/03/25 08:44:53;;;;;;;5.80;2.50;;;;;;;10.28;51.01;99421.63;105466;1256;64265;-58
2024/03/25 08:47:21;;;;;;;6.20;2.60;;;;;;;10.26;51.19;99426.60;105459;1257;61317;-57
2024/03/25 08:49:48;;;;;;;5.00;0.90;;;;;;;10.27;51.20;99422.27;105552;1251;61371;-57
2024/03/25 08:52:17;;;;;;;5.30;2.60;;;;;;;10.31;51.26;99418.95;105466;1251;64705;-56
2024/03/25 08:54:45;;;;;;;4.30;0.80;;;;;;;10.35;51.27;99424.14;105448;1254;64037;-58
2024/03/25 08:57:13;;;;;;;7.30;2.60;;;;;;;10.39;51.28;99427.30;105431;1257;62513;-57
2024/03/25 08:59:41;;;;;;;3.70;1.40;;;;;;;10.46;51.22;99429.08;105370;1251;61955;-57
2024/03/25 09:02:08;;;;;;;6.00;2.30;;;;;;;10.53;50.99;99425.39;105460;1257;61345;-56
2024/03/25 09:04:36;;;;;;;6.10;2.70;;;;;;;10.59;51.01;99421.52;105696;1253;68547;-57
2024/03/25 09:07:04;;;;;;;4.00;1.30;;;;;;;10.64;51.00;99418.80;105435;1256;72371;-52
2024/03/25 09:12:17;;;;;;;3.10;0.70;;;;;;;10.56;50.00;99414.14;105612;1254;61268;-57
2024/03/25 09:14:45;;;;;;;5.90;2.30;;;;;;;10.49;49.72;99417.02;105392;1253;62515;-58
2024/03/25 09:17:13;;;;;;;3.70;1.00;;;;;;;10.44;49.57;99415.74;105266;1257;66030;-60
2024/03/25 09:19:41;;;;;;;5.60;2.30;;;;;;;10.41;49.54;99410.98;105388;1251;61888;-58
2024/03/25 09:22:09;;;;;;;4.90;1.20;;;;;;;10.40;49.69;99406.36;105481;1254;66031;-57
2024/03/25 09:24:36;;;;;;;6.10;2.40;;;;;;;10.42;49.98;99399.61;105278;1253;61829;-57
2024/03/25 09:27:04;;;;;;;6.40;2.20;;;;;;;10.49;49.74;99400.73;105511;1251;61371;-58
2024/03/25 09:29:32;;;;;;;3.60;1.00;;;;;;;10.52;49.65;99400.95;107488;1250;76815;-58
2024/03/25 09:31:59;;;;;;;5.20;2.20;;;;;;;10.57;50.15;99402.55;105246;1254;72989;-58
2024/03/25 09:34:27;;;;;;;3.00;0.80;;;;;;;10.66;50.04;99406.52;105205;1256;62570;-57
2024/03/25 09:36:54;;;;;;;5.00;2.00;;;;;;;10.73;49.50;99405.82;105375;1251;62212;-58
2024/03/25 09:39:22;;;;;;;4.20;1.10;;;;;;;10.78;49.44;99405.38;105342;1251;61221;-60
2024/03/25 09:41:55;;;;;;;8.70;2.20;;;;;;;10.84;49.28;99403.20;105517;1257;68821;-57
2024/03/25 09:44:24;;;;;;;4.10;1.50;;;;;;;10.85;48.89;99399.09;106138;1251;62402;-56
2024/03/25 09:46:52;;;;;;;5.30;2.20;;;;;;;10.83;48.73;99395.27;105985;1257;62747;-58
2024/03/25 09:49:21;;;;;;;3.20;0.90;;;;;;;10.81;48.67;99392.75;106176;1251;61254;-58
2024/03/25 09:51:49;;;;;;;4.30;1.80;;;;;;;10.83;48.74;99389.09;105407;1254;61638;-60
2024/03/25 09:54:16;;;;;;;4.30;1.70;;;;;;;10.85;48.78;99392.06;105521;1256;77940;-56
2024/03/25 09:56:44;;;;;;;6.20;2.20;;;;;;;10.88;48.92;99397.83;105396;1256;61238;-59
2024/03/25 09:59:11;;;;;;;3.10;0.90;;;;;;;10.93;48.69;99397.58;105287;1251;75803;-58
2024/03/25 10:01:39;;;;;;;5.40;1.80;;;;;;;10.95;48.33;99393.34;105243;1258;61520;-56
2024/03/25 10:04:08;;;;;;;6.10;1.70;;;;;;;10.94;47.22;99387.59;106551;1256;61432;-58
2024/03/25 10:06:35;;;;;;;2.50;0.60;;;;;;;10.91;46.47;99381.95;105505;1251;64790;-56
2024/03/25 10:09:06;;;;;;;5.90;2.30;;;;;;;10.87;46.21;99384.68;105511;1254;61853;-57
2024/03/25 10:11:35;;;;;;;2.20;0.70;;;;;;;10.82;46.35;99386.01;105702;1251;64091;-57
2024/03/25 10:14:02;;;;;;;7.00;2.20;;;;;;;10.77;46.68;99385.92;105441;1251;61636;-57
2024/03/25 10:16:30;;;;;;;3.60;1.10;;;;;;;10.77;47.36;99383.52;105353;1251;61429;-56
2024/03/25 10:18:57;;;;;;;4.60;1.60;;;;;;;10.84;47.19;99381.63;105321;1253;70098;-58
2024/03/25 10:21:26;;;;;;;2.80;0.70;;;;;;;10.91;46.33;99376.52;106949;1257;62697;-58
2024/03/25 10:23:55;;;;;;;5.00;1.60;;;;;;;10.94;45.17;99373.73;105441;1254;74902;-58
2024/03/25 10:26:27;;;;;;;2.60;0.70;;;;;;;10.90;44.84;99374.02;105936;1253;61349;-58
2024/03/25 10:29:06;;;;;;;5.30;2.00;;;;;;;10.83;44.72;99367.14;105475;1254;61355;-59
2024/03/25 10:31:34;;;;;;;4.30;1.00;;;;;;;10.75;44.88;99368.75;105793;1251;74640;-55
2024/03/25 10:34:01;;;;;;;5.10;1.90;;;;;;;10.75;44.94;99372.63;105925;1251;61827;-58
2024/03/25 10:36:29;;;;;;;4.50;1.50;;;;;;;10.75;44.70;99375.45;105368;1251;66418;-56
2024/03/25 10:38:57;;;;;;;2.70;0.70;;;;;;;10.74;44.62;99373.96;105239;1251;61212;-59
2024/03/25 10:41:26;;;;;;;6.50;1.70;;;;;;;10.74;44.37;99364.98;106968;1251;59566;-58
2024/03/25 10:43:53;;;;;;;2.60;0.80;;;;;;;10.75;44.45;99363.88;105365;1254;66805;-59
2024/03/25 10:46:22;;;;;;;4.30;1.20;;;;;;;10.75;44.24;99361.77;109346;1251;63735;-59
2024/03/25 10:49:00;;;;;;;5.00;1.70;;;;;;;10.73;44.02;99363.56;109371;1252;64863;-61
2024/03/25 10:51:28;;;;;;;1.50;0.60;;;;;;;10.63;42.96;99356.80;109150;1254;60085;-58
2024/03/25 10:53:55;;;;;;;5.40;1.30;;;;;;;10.54;43.13;99358.65;109159;1251;59096;-59
2024/03/25 10:56:23;;;;;;;1.70;0.80;;;;;;;10.50;42.94;99361.86;109341;1251;75605;-59
2024/03/25 10:58:51;;;;;;;4.80;1.30;;;;;;;10.48;42.93;99359.99;109195;1251;68997;-60
2024/03/25 11:01:19;;;;;;;4.60;1.10;;;;;;;10.50;42.89;99359.82;109290;1251;65711;-57
2024/03/25 11:03:47;;;;;;;3.50;1.00;;;;;;;10.52;42.83;99359.60;109319;1253;59217;-54
2024/03/25 11:06:16;;;;;;;4.30;1.20;;;;;;;10.54;42.79;99351.71;109181;1257;61228;-58
2024/03/25 11:08:47;;;;;;;6.20;0.90;;;;;;;10.56;42.60;99353.84;108029;1251;68525;-58
2024/03/25 11:11:14;;;;;;;4.90;1.50;;;;;;;10.57;42.81;99351.52;106329;1254;62418;-54
2024/03/25 11:13:42;;;;;;;5.00;1.60;;;;;;;10.57;42.89;99344.94;105457;1254;74818;-59
2024/03/25 11:16:12;;;;;;;1.90;0.30;;;;;;;10.56;42.74;99348.33;105229;1251;61327;-57
2024/03/25 11:18:41;;;;;;;5.80;1.70;;;;;;;10.53;42.66;99347.73;105708;1256;61154;-58
2024/03/25 11:21:09;;;;;;;2.60;0.70;;;;;;;10.52;43.37;99345.24;105674;1251;74644;-59
2024/03/25 11:23:44;;;;;;;4.60;1.20;;;;;;;10.55;43.61;99344.00;105447;1255;61768;-58
2024/03/25 11:26:20;;;;;;;2.90;0.40;;;;;;;10.62;43.51;99344.43;105650;1257;74544;-60
2024/03/25 11:28:49;;;;;;;4.60;1.40;;;;;;;10.67;43.20;99349.42;105286;1253;61502;-61
2024/03/25 11:31:18;;;;;;;4.40;0.90;;;;;;;10.66;42.62;99344.96;105404;1251;61409;-59
2024/03/25 11:33:47;;;;;;;5.40;1.40;;;;;;;10.59;42.48;99342.80;105287;1252;64548;-56
2024/03/25 11:36:14;;;;;;;3.10;0.40;;;;;;;10.52;42.50;99337.85;105647;1257;62385;-56
2024/03/25 11:38:44;;;;;;;4.00;1.10;;;;;;;10.45;41.77;99330.77;105398;1251;74861;-59